Time;durP1;ratioP1;P1;durP2;ratioP2;P2;SDS_P1;SDS_P2;PMS_P1;PMS_P2;Temp;Humidity;BMP_temperature;BMP_pressure;BME280_temperature;BME280_humidity;BME280_pressure;Samples;Min_cycle;Max_cycle;Signal;HPM_P1;HPM_P2
2023/08/01 00:02:10;;;;;;;3.10;2.40;;;;;;;21.32;nan;98516.50;4967958;28;20477;-79
2023/08/01 00:04:36;;;;;;;6.40;2.80;;;;;;;21.43;nan;98513.34;4972082;28;20457;-83
2023/08/01 00:07:01;;;;;;;3.50;2.60;;;;;;;21.56;nan;98511.78;4968690;28;20821;-81
2023/08/01 00:09:26;;;;;;;6.50;3.37;;;;;;;21.65;nan;98507.94;4973524;28;20219;-80
2023/08/01 00:11:52;;;;;;;5.63;3.30;;;;;;;21.71;nan;98499.16;4971135;28;20211;-79
2023/08/01 00:14:20;;;;;;;4.90;3.50;;;;;;;21.78;nan;98502.66;4970838;28;20400;-80
2023/08/01 00:16:45;;;;;;;3.97;3.07;;;;;;;21.83;nan;98494.88;4970631;28;20298;-80
2023/08/01 00:19:12;;;;;;;3.50;3.20;;;;;;;21.88;nan;98496.97;4968780;28;20488;-80
2023/08/01 00:21:37;;;;;;;8.40;3.47;;;;;;;21.91;nan;98495.75;4971098;28;20731;-82
2023/08/01 00:24:03;;;;;;;5.83;2.93;;;;;;;21.95;nan;98486.31;4968663;28;20450;-80
2023/08/01 00:26:28;;;;;;;4.07;2.73;;;;;;;21.98;nan;98489.44;4970650;28;20293;-80
2023/08/01 00:28:54;;;;;;;3.70;3.10;;;;;;;22.03;nan;98494.16;4968846;28;20208;-79
2023/08/01 00:31:19;;;;;;;4.60;3.80;;;;;;;22.05;nan;98492.94;4967555;28;20198;-82
2023/08/01 00:33:45;;;;;;;4.37;2.87;;;;;;;22.09;nan;98494.22;4953289;28;20203;-81
2023/08/01 00:36:11;;;;;;;4.67;2.67;;;;;;;22.10;nan;98485.16;4969594;28;20570;-81
2023/08/01 00:38:37;;;;;;;4.83;3.17;;;;;;;22.13;nan;98483.94;4969790;28;20781;-79
2023/08/01 00:41:03;;;;;;;3.93;2.90;;;;;;;22.16;nan;98482.72;4967199;28;20227;-79
2023/08/01 00:43:28;;;;;;;3.80;2.47;;;;;;;22.18;nan;98486.00;4970062;28;20509;-79
2023/08/01 00:45:59;;;;;;;4.93;3.53;;;;;;;22.18;nan;98489.53;4967771;28;20692;-80
2023/08/01 00:48:24;;;;;;;3.43;2.77;;;;;;;22.18;nan;98489.53;4969270;28;20265;-80
2023/08/01 00:50:50;;;;;;;3.00;2.33;;;;;;;22.19;nan;98487.69;4967567;28;20458;-82
2023/08/01 00:53:17;;;;;;;4.50;3.57;;;;;;;22.19;nan;98485.81;4970022;28;20745;-80
2023/08/01 00:55:43;;;;;;;2.90;2.60;;;;;;;22.20;nan;98474.13;4969201;28;20241;-79
2023/08/01 00:58:08;;;;;;;3.47;3.00;;;;;;;22.21;nan;98480.28;4970153;28;21462;-80
2023/08/01 01:00:34;;;;;;;5.30;2.80;;;;;;;22.19;nan;98461.75;4968774;28;20964;-80
2023/08/01 01:03:00;;;;;;;4.20;3.30;;;;;;;22.17;nan;98453.09;4968357;28;20218;-82
2023/08/01 01:05:31;;;;;;;4.20;3.07;;;;;;;22.18;nan;98443.22;4967050;28;20809;-81
2023/08/01 01:07:57;;;;;;;5.33;2.93;;;;;;;22.16;nan;98440.72;4969237;28;20461;-80
2023/08/01 01:10:22;;;;;;;6.73;2.50;;;;;;;22.18;nan;98448.56;4968456;28;20455;-82
2023/08/01 01:12:49;;;;;;;5.80;2.70;;;;;;;22.20;nan;98442.03;4970191;28;20474;-81
2023/08/01 01:15:15;;;;;;;4.90;2.57;;;;;;;22.22;nan;98450.66;4967223;28;20574;-79
2023/08/01 01:17:40;;;;;;;9.57;3.00;;;;;;;22.24;nan;98450.47;4967111;28;20469;-80
2023/08/01 01:20:06;;;;;;;4.40;3.57;;;;;;;22.25;nan;98438.72;4969077;28;20210;-80
2023/08/01 01:22:33;;;;;;;5.07;2.47;;;;;;;22.26;nan;98441.22;4968897;28;20225;-79
2023/08/01 01:25:01;;;;;;;6.23;3.30;;;;;;;22.24;nan;98431.75;4970400;28;20638;-82
2023/08/01 01:27:27;;;;;;;6.23;2.30;;;;;;;22.25;nan;98436.91;4970559;28;20839;-81
2023/08/01 01:29:54;;;;;;;3.30;2.10;;;;;;;22.27;nan;98442.84;4967531;28;20460;-80
2023/08/01 01:32:20;;;;;;;4.50;2.50;;;;;;;22.30;nan;98434.44;4969372;28;20442;-78
2023/08/01 01:34:46;;;;;;;14.40;5.60;;;;;;;22.34;nan;98434.84;4969748;28;20996;-78
2023/08/01 01:37:11;;;;;;;7.43;5.17;;;;;;;22.38;nan;98435.28;4968836;28;20469;-78
2023/08/01 01:39:36;;;;;;;3.33;1.90;;;;;;;22.41;nan;98432.19;4969192;28;20231;-78
2023/08/01 01:42:02;;;;;;;4.10;2.77;;;;;;;22.42;nan;98431.19;4969619;28;20330;-79
2023/08/01 01:44:28;;;;;;;3.77;2.50;;;;;;;22.45;nan;98433.44;4948209;28;20206;-80
2023/08/01 01:46:54;;;;;;;3.57;2.53;;;;;;;22.48;nan;98419.66;4968676;28;20577;-79
2023/08/01 01:49:19;;;;;;;8.90;2.73;;;;;;;22.47;nan;98423.38;4967878;28;20469;-79
2023/08/01 01:51:44;;;;;;;2.90;2.53;;;;;;;22.49;nan;98432.00;4965006;28;20795;-78
2023/08/01 01:54:10;;;;;;;2.87;2.20;;;;;;;22.47;nan;98426.88;4968203;28;20209;-79
2023/08/01 01:56:35;;;;;;;4.60;2.97;;;;;;;22.46;nan;98424.38;4966291;28;20191;-79
2023/08/01 01:59:02;;;;;;;3.00;2.27;;;;;;;22.47;nan;98432.22;4948483;28;20896;-78
2023/08/01 02:01:27;;;;;;;6.73;2.83;;;;;;;22.45;nan;98433.44;4943488;28;20454;-78
2023/08/01 02:03:53;;;;;;;3.93;2.93;;;;;;;22.44;nan;98437.97;4966248;28;20201;-78
2023/08/01 02:06:18;;;;;;;4.07;2.63;;;;;;;22.45;nan;98430.78;4961652;28;20445;-78
2023/08/01 02:08:44;;;;;;;3.60;2.87;;;;;;;22.45;nan;98428.91;4964603;28;20634;-79
2023/08/01 02:11:10;;;;;;;3.10;2.13;;;;;;;22.45;nan;98420.06;4952896;28;20618;-79
2023/08/01 02:13:36;;;;;;;4.20;3.30;;;;;;;22.41;nan;98422.31;4966765;28;20546;-79
2023/08/01 02:16:01;;;;;;;9.13;2.93;;;;;;;22.41;nan;98413.47;4966530;28;20707;-79
2023/08/01 02:18:27;;;;;;;4.17;3.00;;;;;;;22.39;nan;98412.84;4965432;28;20252;-78
2023/08/01 02:20:52;;;;;;;4.20;3.20;;;;;;;22.39;nan;98418.22;4962088;28;20213;-79
2023/08/01 02:23:18;;;;;;;3.90;2.17;;;;;;;22.39;nan;98411.00;4966143;28;20217;-78
2023/08/01 02:25:44;;;;;;;4.27;2.73;;;;;;;22.42;nan;98409.78;4964549;28;20422;-79
2023/08/01 02:28:09;;;;;;;3.83;2.40;;;;;;;22.42;nan;98407.09;4961250;28;20208;-78
2023/08/01 02:30:36;;;;;;;5.40;2.93;;;;;;;22.44;nan;98413.06;4963003;28;20204;-79
2023/08/01 02:33:02;;;;;;;3.43;2.50;;;;;;;22.45;nan;98417.38;4946404;28;20221;-78
2023/08/01 02:35:28;;;;;;;5.20;2.73;;;;;;;22.44;nan;98429.09;4964811;28;20468;-78
2023/08/01 02:37:54;;;;;;;3.30;2.27;;;;;;;22.46;nan;98406.47;4967373;28;20403;-79
2023/08/01 02:40:19;;;;;;;3.97;2.53;;;;;;;22.49;nan;98402.56;4966102;28;20787;-79
2023/08/01 02:42:45;;;;;;;4.20;2.30;;;;;;;22.53;nan;98409.16;4966625;28;20468;-78
2023/08/01 02:45:10;;;;;;;2.70;2.20;;;;;;;22.53;nan;98411.84;4966028;28;20213;-78
2023/08/01 02:47:35;;;;;;;2.60;1.80;;;;;;;22.53;nan;98419.88;4964925;28;20610;-79
2023/08/01 02:50:01;;;;;;;8.43;2.97;;;;;;;22.53;nan;98420.69;4966924;28;20205;-78
2023/08/01 02:52:26;;;;;;;4.40;2.27;;;;;;;22.54;nan;98419.66;4964059;28;20201;-79
2023/08/01 02:54:52;;;;;;;3.43;3.10;;;;;;;22.58;nan;98428.13;4949088;28;20726;-78
2023/08/01 02:57:17;;;;;;;2.40;2.20;;;;;;;22.58;nan;98430.78;4947356;28;20329;-78
2023/08/01 02:59:42;;;;;;;3.67;2.87;;;;;;;22.62;nan;98440.06;4964693;28;20635;-78
2023/08/01 03:02:08;;;;;;;4.10;2.70;;;;;;;22.63;nan;98457.78;4961819;28;20321;-78
2023/08/01 03:04:33;;;;;;;3.47;2.23;;;;;;;22.63;nan;98451.56;4968743;28;20279;-79
2023/08/01 03:06:59;;;;;;;4.80;3.13;;;;;;;22.61;nan;98443.78;4971042;28;20206;-79
2023/08/01 03:09:24;;;;;;;3.20;2.53;;;;;;;22.61;nan;98462.50;4970099;28;20229;-78
2023/08/01 03:11:49;;;;;;;3.30;2.63;;;;;;;22.57;nan;98458.56;4968334;28;20206;-79
2023/08/01 03:14:16;;;;;;;5.13;2.30;;;;;;;22.55;nan;98463.31;4971573;28;20224;-78
2023/08/01 03:16:42;;;;;;;3.00;2.70;;;;;;;22.51;nan;98460.22;4964266;28;20233;-78
2023/08/01 03:19:08;;;;;;;3.53;3.03;;;;;;;22.50;nan;98468.47;4969067;28;20539;-79
2023/08/01 03:21:34;;;;;;;4.80;2.07;;;;;;;22.47;nan;98469.69;4967475;28;20429;-79
2023/08/01 03:24:00;;;;;;;4.60;2.60;;;;;;;22.45;nan;98470.91;4967989;28;20480;-78
2023/08/01 03:26:30;;;;;;;4.20;3.00;;;;;;;22.43;nan;98475.63;4948443;28;20435;-78
2023/08/01 03:28:56;;;;;;;3.07;2.30;;;;;;;22.38;nan;98460.16;4961679;28;20432;-78
2023/08/01 03:31:22;;;;;;;3.97;3.10;;;;;;;22.36;nan;98456.03;4971310;28;20427;-78
2023/08/01 03:33:48;;;;;;;4.50;2.63;;;;;;;22.36;nan;98445.34;4969524;28;20485;-79
2023/08/01 03:36:13;;;;;;;2.37;1.90;;;;;;;22.35;nan;98439.19;4962301;28;20435;-79
2023/08/01 03:38:42;;;;;;;4.50;2.97;;;;;;;22.34;nan;98426.03;4965684;28;20214;-79
2023/08/01 03:41:16;;;;;;;3.57;2.90;;;;;;;22.30;nan;98422.91;4968983;28;20225;-79
2023/08/01 03:43:41;;;;;;;2.77;2.00;;;;;;;22.27;nan;98418.78;4970479;28;20481;-80
2023/08/01 03:46:07;;;;;;;3.73;2.17;;;;;;;22.25;nan;98409.31;4970536;28;20716;-78
2023/08/01 03:48:32;;;;;;;3.57;2.03;;;;;;;22.22;nan;98402.50;4974155;28;20744;-78
2023/08/01 03:50:58;;;;;;;3.13;2.50;;;;;;;22.21;nan;98400.06;4969596;28;20283;-78
2023/08/01 03:53:25;;;;;;;3.60;2.43;;;;;;;22.19;nan;98399.41;4963858;28;20808;-78
2023/08/01 03:55:51;;;;;;;4.10;2.63;;;;;;;22.11;nan;98381.66;4975128;28;20432;-78
2023/08/01 03:58:16;;;;;;;6.13;3.47;;;;;;;22.03;nan;98373.84;4971359;28;20343;-76
2023/08/01 04:00:42;;;;;;;4.73;3.03;;;;;;;21.97;nan;98382.66;4968816;28;20432;-78
2023/08/01 04:03:07;;;;;;;5.80;2.97;;;;;;;21.88;nan;98398.88;4964644;28;20193;-78
2023/08/01 04:05:33;;;;;;;4.27;2.53;;;;;;;21.81;nan;98368.63;4973959;28;20673;-78
2023/08/01 04:07:59;;;;;;;4.50;2.60;;;;;;;21.73;nan;98368.78;4971420;28;20211;-77
2023/08/01 04:10:24;;;;;;;4.57;2.50;;;;;;;21.65;nan;98369.78;4967508;28;20245;-77
2023/08/01 04:12:50;;;;;;;3.27;2.63;;;;;;;21.58;nan;98342.22;4972307;28;20430;-77
2023/08/01 04:15:15;;;;;;;4.03;2.47;;;;;;;21.50;nan;98330.91;4971192;28;20209;-77
2023/08/01 04:17:41;;;;;;;5.70;2.40;;;;;;;21.41;nan;98292.81;4971933;28;20790;-77
2023/08/01 04:20:06;;;;;;;8.63;4.20;;;;;;;21.30;nan;98296.84;4971739;28;20852;-77
2023/08/01 04:22:32;;;;;;;4.20;2.40;;;;;;;21.21;nan;98322.09;4964931;28;20307;-77
2023/08/01 04:24:57;;;;;;;3.77;2.40;;;;;;;21.06;nan;98306.16;4964975;28;20292;-77
2023/08/01 04:27:23;;;;;;;8.57;2.90;;;;;;;20.96;nan;98303.88;4972484;28;20228;-76
2023/08/01 04:29:48;;;;;;;4.73;3.00;;;;;;;20.85;nan;98293.75;4972366;28;20235;-76
2023/08/01 04:32:15;;;;;;;3.60;2.53;;;;;;;20.78;nan;98288.34;4969565;28;20765;-77
2023/08/01 04:34:41;;;;;;;9.47;3.07;;;;;;;20.69;nan;98304.72;4964524;28;20209;-77
2023/08/01 04:37:06;;;;;;;3.83;3.33;;;;;;;20.58;nan;98324.75;4971818;28;20432;-77
2023/08/01 04:39:32;;;;;;;8.33;3.07;;;;;;;20.52;nan;98329.00;4973192;28;20262;-77
2023/08/01 04:41:57;;;;;;;5.83;2.97;;;;;;;20.44;nan;98331.78;4972792;28;20226;-77
2023/08/01 04:44:23;;;;;;;6.80;3.60;;;;;;;20.41;nan;98361.50;4972693;28;20204;-77
2023/08/01 04:46:48;;;;;;;6.37;3.13;;;;;;;20.25;nan;98370.59;4967902;28;20199;-77
2023/08/01 04:49:14;;;;;;;3.30;2.50;;;;;;;20.19;nan;98389.19;4968472;28;20208;-77
2023/08/01 04:51:39;;;;;;;4.03;2.53;;;;;;;20.15;nan;98393.25;4971397;28;20676;-77
2023/08/01 04:54:04;;;;;;;3.80;2.87;;;;;;;20.09;nan;98373.47;4965575;28;20722;-77
2023/08/01 04:56:30;;;;;;;4.13;3.00;;;;;;;20.05;nan;98335.72;4973306;28;20217;-77
2023/08/01 04:58:55;;;;;;;6.20;2.97;;;;;;;20.04;nan;98294.09;4973444;28;20204;-77
2023/08/01 05:01:21;;;;;;;5.33;3.40;;;;;;;20.01;nan;98291.81;4972599;28;20219;-77
2023/08/01 05:03:46;;;;;;;6.40;3.10;;;;;;;19.98;nan;98300.19;4973097;28;20404;-77
2023/08/01 05:06:11;;;;;;;4.43;2.60;;;;;;;19.92;nan;98284.94;4970177;28;20193;-77
2023/08/01 05:08:37;;;;;;;3.63;2.80;;;;;;;19.89;nan;98294.13;4961371;28;20626;-77
2023/08/01 05:11:02;;;;;;;5.60;3.87;;;;;;;19.86;nan;98304.34;4971014;28;20227;-77
2023/08/01 05:13:28;;;;;;;6.30;3.17;;;;;;;19.85;nan;98324.03;4970619;28;20235;-77
2023/08/01 05:15:53;;;;;;;8.50;4.17;;;;;;;19.81;nan;98314.75;4970616;28;20337;-77
2023/08/01 05:18:19;;;;;;;6.90;3.33;;;;;;;19.78;nan;98321.28;4971172;28;20827;-77
2023/08/01 05:20:44;;;;;;;14.03;4.70;;;;;;;19.78;nan;98328.47;4957565;28;20184;-77
2023/08/01 05:23:09;;;;;;;3.80;3.30;;;;;;;19.78;nan;98331.94;4970604;28;20732;-77
2023/08/01 05:25:35;;;;;;;10.63;5.20;;;;;;;19.78;nan;98336.44;4970316;28;20205;-77
2023/08/01 05:28:01;;;;;;;7.37;3.60;;;;;;;19.78;nan;98344.44;4971324;28;20192;-77
2023/08/01 05:30:26;;;;;;;7.70;3.23;;;;;;;19.74;nan;98359.13;4968942;28;20218;-77
2023/08/01 05:32:53;;;;;;;7.03;3.40;;;;;;;19.72;nan;98361.19;4970655;28;20573;-77
2023/08/01 05:35:19;;;;;;;4.90;3.40;;;;;;;19.70;nan;98363.22;4970776;28;20207;-77
2023/08/01 05:37:44;;;;;;;5.43;3.30;;;;;;;19.67;nan;98365.22;4964445;28;20452;-77
2023/08/01 05:40:10;;;;;;;6.40;3.67;;;;;;;19.66;nan;98358.25;4967448;28;20204;-77
2023/08/01 05:42:36;;;;;;;10.40;4.10;;;;;;;19.65;nan;98369.06;4957756;28;20219;-77
2023/08/01 05:45:01;;;;;;;5.60;3.87;;;;;;;19.62;nan;98383.56;4968982;28;20461;-78
2023/08/01 05:47:27;;;;;;;6.60;5.73;;;;;;;19.59;nan;98361.81;4971641;28;20587;-77
2023/08/01 05:49:52;;;;;;;5.40;4.20;;;;;;;19.59;nan;98353.81;4971162;28;20202;-78
2023/08/01 05:52:17;;;;;;;5.87;3.20;;;;;;;19.56;nan;98363.00;4964644;28;20214;-78
2023/08/01 05:54:43;;;;;;;3.70;2.90;;;;;;;19.54;nan;98362.34;4972055;28;20206;-77
2023/08/01 05:57:08;;;;;;;7.10;4.30;;;;;;;19.53;nan;98379.34;4969607;28;20569;-79
2023/08/01 05:59:34;;;;;;;7.67;3.43;;;;;;;19.55;nan;98361.38;4962397;28;20294;-78
2023/08/01 06:01:59;;;;;;;4.93;2.63;;;;;;;19.54;nan;98333.06;4967662;28;20225;-79
2023/08/01 06:04:25;;;;;;;7.07;3.70;;;;;;;19.54;nan;98318.91;4970298;28;20207;-79
2023/08/01 06:06:50;;;;;;;5.40;3.60;;;;;;;19.57;nan;98353.16;4964206;28;20476;-78
2023/08/01 06:09:16;;;;;;;4.47;2.80;;;;;;;19.60;nan;98358.94;4962151;28;20209;-77
2023/08/01 06:11:41;;;;;;;4.10;2.77;;;;;;;19.62;nan;98358.78;4968500;28;20199;-78
2023/08/01 06:14:07;;;;;;;4.10;2.80;;;;;;;19.64;nan;98359.41;4966318;28;20205;-79
2023/08/01 06:16:32;;;;;;;4.73;3.13;;;;;;;19.67;nan;98346.56;4969740;28;20206;-77
2023/08/01 06:18:58;;;;;;;3.97;3.40;;;;;;;19.70;nan;98368.53;4968323;28;20227;-78
2023/08/01 06:21:24;;;;;;;4.63;3.60;;;;;;;19.73;nan;98357.50;4960546;28;20267;-77
2023/08/01 06:23:49;;;;;;;5.27;3.10;;;;;;;19.74;nan;98352.00;4957201;28;20835;-78
2023/08/01 06:26:15;;;;;;;6.30;2.77;;;;;;;19.74;nan;98343.16;4961884;28;20264;-78
2023/08/01 06:28:41;;;;;;;7.17;3.77;;;;;;;19.73;nan;98358.31;4962210;28;20215;-79
2023/08/01 06:31:06;;;;;;;7.13;3.73;;;;;;;19.72;nan;98356.69;4961803;28;20767;-79
2023/08/01 06:33:32;;;;;;;5.43;3.30;;;;;;;19.70;nan;98337.38;4962312;28;20466;-78
2023/08/01 06:35:57;;;;;;;4.17;2.90;;;;;;;19.72;nan;98334.53;4951378;28;20239;-78
2023/08/01 06:38:23;;;;;;;4.13;3.00;;;;;;;19.71;nan;98330.22;4964054;28;20201;-78
2023/08/01 06:40:48;;;;;;;4.70;2.57;;;;;;;19.73;nan;98360.97;4958102;28;20669;-79
2023/08/01 06:43:14;;;;;;;6.00;3.17;;;;;;;19.81;nan;98365.38;4957434;28;20208;-79
2023/08/01 06:45:39;;;;;;;4.43;3.10;;;;;;;19.87;nan;98364.63;4960374;28;20233;-78
2023/08/01 06:48:05;;;;;;;4.50;2.80;;;;;;;19.88;nan;98366.28;4967645;28;20287;-78
2023/08/01 06:50:30;;;;;;;6.90;3.10;;;;;;;19.86;nan;98368.31;4966881;28;20216;-79
2023/08/01 06:52:56;;;;;;;8.30;3.40;;;;;;;19.86;nan;98370.97;4965371;28;20208;-78
2023/08/01 06:55:21;;;;;;;3.30;2.40;;;;;;;19.84;nan;98367.66;4968802;28;20544;-79
2023/08/01 07:00:31;;;;;;;3.37;2.30;;;;;;;19.75;nan;98360.81;5074554;23;20227;-79
2023/08/01 07:02:57;;;;;;;10.50;4.50;;;;;;;19.72;nan;98362.00;5017170;28;20489;-79
2023/08/01 07:05:23;;;;;;;7.20;3.08;;;;;;;19.75;nan;98344.81;5022825;28;20455;-79
2023/08/01 07:07:48;;;;;;;4.77;2.77;;;;;;;19.76;nan;98360.59;5020991;28;20195;-78
2023/08/01 07:10:14;;;;;;;5.17;3.17;;;;;;;19.81;nan;98366.19;5019272;28;20463;-79
2023/08/01 07:12:40;;;;;;;4.27;2.97;;;;;;;19.84;nan;98370.34;5035351;23;20286;-81
2023/08/01 07:15:06;;;;;;;8.60;3.23;;;;;;;19.87;nan;98367.28;5009508;28;20222;-81
2023/08/01 07:17:32;;;;;;;7.03;3.50;;;;;;;19.90;nan;98374.91;5013472;28;20204;-81
2023/08/01 07:19:57;;;;;;;2.80;2.57;;;;;;;19.89;nan;98381.25;5022112;28;20477;-80
2023/08/01 07:22:22;;;;;;;8.60;4.77;;;;;;;19.90;nan;98382.91;5016005;28;20493;-81
2023/08/01 07:24:52;;;;;;;4.40;3.63;;;;;;;19.82;nan;98391.84;5002029;28;20211;-82
2023/08/01 07:27:18;;;;;;;6.00;4.10;;;;;;;19.75;nan;98382.94;4996968;28;20207;-81
2023/08/01 07:29:46;;;;;;;11.00;4.37;;;;;;;19.69;nan;98377.56;4994631;28;20943;-81
2023/08/01 07:32:11;;;;;;;3.70;3.20;;;;;;;19.62;nan;98364.91;4995913;28;20494;-79
2023/08/01 07:34:37;;;;;;;7.17;3.63;;;;;;;19.52;nan;98372.38;4995690;28;20302;-79
2023/08/01 07:37:03;;;;;;;8.30;4.30;;;;;;;19.44;nan;98364.47;4994552;28;20471;-79
2023/08/01 07:39:28;;;;;;;6.43;4.87;;;;;;;19.35;nan;98365.59;4995775;28;20238;-78
2023/08/01 07:41:55;;;;;;;6.40;4.67;;;;;;;19.28;nan;98354.00;4993833;28;20365;-78
2023/08/01 07:44:20;;;;;;;6.37;4.00;;;;;;;19.23;nan;98363.41;4996483;28;20317;-79
2023/08/01 07:46:46;;;;;;;7.60;4.00;;;;;;;19.17;nan;98381.91;4995790;28;21270;-79
2023/08/01 07:49:11;;;;;;;7.90;4.43;;;;;;;19.12;nan;98371.84;4993523;28;20736;-78
2023/08/01 07:51:37;;;;;;;6.23;4.80;;;;;;;19.08;nan;98378.53;4993649;28;20910;-78
2023/08/01 07:54:02;;;;;;;5.07;3.10;;;;;;;19.05;nan;98359.44;4992789;28;20700;-79
2023/08/01 07:56:27;;;;;;;6.23;3.23;;;;;;;19.02;nan;98339.34;4993163;28;20199;-78
2023/08/01 07:58:53;;;;;;;3.27;2.77;;;;;;;19.01;nan;98327.06;4994287;28;20626;-78
2023/08/01 08:01:18;;;;;;;5.90;3.50;;;;;;;18.98;nan;98352.19;4993601;28;20203;-78
2023/08/01 08:03:43;;;;;;;6.40;3.10;;;;;;;18.92;nan;98360.88;4994815;28;20215;-81
2023/08/01 08:06:09;;;;;;;6.17;3.00;;;;;;;18.90;nan;98362.91;4993176;28;20261;-78
2023/08/01 08:08:36;;;;;;;4.87;2.53;;;;;;;18.86;nan;98350.97;4992404;28;20238;-78
2023/08/01 08:11:01;;;;;;;3.10;2.20;;;;;;;18.86;nan;98344.84;4994654;28;20206;-79
2023/08/01 08:13:30;;;;;;;4.50;2.53;;;;;;;18.86;nan;98334.19;4994243;28;20477;-82
2023/08/01 08:15:59;;;;;;;5.73;2.77;;;;;;;18.90;nan;98340.78;4996214;28;20208;-80
2023/08/01 08:18:24;;;;;;;2.60;2.13;;;;;;;18.99;nan;98339.72;4977970;28;20806;-81
2023/08/01 08:20:50;;;;;;;4.33;3.27;;;;;;;19.07;nan;98342.28;4998865;28;20442;-81
2023/08/01 08:23:15;;;;;;;3.57;2.27;;;;;;;19.18;nan;98349.81;4995566;28;20295;-81
2023/08/01 08:25:42;;;;;;;3.83;2.20;;;;;;;19.29;nan;98340.53;4994446;28;20209;-81
2023/08/01 08:28:08;;;;;;;3.67;2.60;;;;;;;19.37;nan;98350.25;4996969;28;20278;-80
2023/08/01 08:30:34;;;;;;;4.37;3.40;;;;;;;19.46;nan;98351.81;4995018;28;21337;-81
2023/08/01 08:33:04;;;;;;;5.53;3.37;;;;;;;19.56;nan;98347.03;4992064;28;20463;-80
2023/08/01 08:35:33;;;;;;;4.85;3.38;;;;;;;19.64;nan;98359.41;4994992;28;20539;-81
2023/08/01 08:37:59;;;;;;;6.60;4.23;;;;;;;19.73;nan;98357.50;4995427;28;20212;-81
2023/08/01 08:40:25;;;;;;;6.50;4.47;;;;;;;19.83;nan;98358.84;4994429;28;20491;-77
2023/08/01 08:42:52;;;;;;;6.57;4.43;;;;;;;19.99;nan;98360.47;4999435;28;20994;-80
2023/08/01 08:45:20;;;;;;;7.33;5.03;;;;;;;20.09;nan;98353.00;4992342;28;20204;-80
2023/08/01 08:47:53;;;;;;;3.23;2.93;;;;;;;20.16;nan;98360.22;4993064;28;20453;-81
2023/08/01 08:50:19;;;;;;;5.90;3.10;;;;;;;20.14;nan;98349.75;4992464;28;20837;-82
2023/08/01 08:52:45;;;;;;;7.13;3.13;;;;;;;20.11;nan;98355.47;4991806;28;20935;-81
2023/08/01 08:55:11;;;;;;;6.10;3.47;;;;;;;20.10;nan;98348.50;4993872;28;20457;-80
2023/08/01 08:57:39;;;;;;;3.60;2.47;;;;;;;20.11;nan;98352.78;4993271;28;20437;-80
2023/08/01 09:00:05;;;;;;;5.50;3.73;;;;;;;20.10;nan;98354.63;4994683;28;20858;-80
2023/08/01 09:02:32;;;;;;;5.27;3.97;;;;;;;20.09;nan;98366.31;4991834;28;20506;-80
2023/08/01 09:04:57;;;;;;;3.87;2.90;;;;;;;20.07;nan;98360.34;4992129;28;20933;-81
2023/08/01 09:07:29;;;;;;;3.53;2.17;;;;;;;20.05;nan;98367.72;4995007;28;20591;-81
2023/08/01 09:09:54;;;;;;;5.20;4.10;;;;;;;20.06;nan;98358.72;4996919;28;20201;-81
2023/08/01 09:12:23;;;;;;;4.27;3.27;;;;;;;20.07;nan;98365.69;5002564;28;20451;-80
2023/08/01 09:14:50;;;;;;;2.80;2.33;;;;;;;20.13;nan;98372.09;4995953;28;20940;-80
2023/08/01 09:17:18;;;;;;;3.33;2.10;;;;;;;20.17;nan;98362.72;4995880;28;20451;-80
2023/08/01 09:19:43;;;;;;;2.60;2.00;;;;;;;20.21;nan;98360.50;4991762;28;20517;-80
2023/08/01 09:22:13;;;;;;;3.50;2.03;;;;;;;20.24;nan;98371.59;4993139;28;20462;-80
2023/08/01 09:24:38;;;;;;;2.40;1.80;;;;;;;20.28;nan;98364.88;4992253;28;20207;-80
2023/08/01 09:27:04;;;;;;;3.17;2.17;;;;;;;20.33;nan;98373.13;4992064;28;20603;-82
2023/08/01 09:29:32;;;;;;;2.57;1.93;;;;;;;20.32;nan;98374.13;4991744;28;20197;-80
2023/08/01 09:31:58;;;;;;;2.90;1.93;;;;;;;20.34;nan;98379.28;4992428;28;20465;-81
2023/08/01 09:34:25;;;;;;;3.40;2.50;;;;;;;20.38;nan;98369.88;4991486;28;20475;-80
2023/08/01 09:36:57;;;;;;;3.20;1.70;;;;;;;20.46;nan;98368.94;4990654;28;20285;-80
2023/08/01 09:39:22;;;;;;;3.50;2.10;;;;;;;20.59;nan;98360.25;4994725;28;20974;-80
2023/08/01 09:42:01;;;;;;;3.50;1.97;;;;;;;20.75;nan;98370.66;4990602;28;20488;-81
2023/08/01 09:44:28;;;;;;;4.50;2.50;;;;;;;20.88;nan;98384.09;4989254;28;20804;-80
2023/08/01 09:47:01;;;;;;;4.10;1.93;;;;;;;20.98;nan;98379.25;4992723;28;21167;-79
2023/08/01 09:49:28;;;;;;;4.63;2.37;;;;;;;21.06;nan;98364.09;4989606;28;20457;-80
2023/08/01 09:51:54;;;;;;;5.93;2.57;;;;;;;21.07;nan;98387.13;4988669;28;20463;-80
2023/08/01 09:54:20;;;;;;;2.37;1.60;;;;;;;21.04;nan;98387.50;4989876;28;21002;-80
2023/08/01 09:56:50;;;;;;;2.43;2.00;;;;;;;21.02;nan;98406.38;4989707;28;20480;-80
2023/08/01 09:59:23;;;;;;;2.60;2.17;;;;;;;21.02;nan;98406.38;4991196;28;20470;-80
2023/08/01 10:01:50;;;;;;;4.60;2.47;;;;;;;21.08;nan;98394.09;4991400;28;20477;-80
2023/08/01 10:04:29;;;;;;;3.70;2.30;;;;;;;21.15;nan;98392.31;4989679;28;20467;-81
2023/08/01 10:06:59;;;;;;;4.93;2.57;;;;;;;21.15;nan;98411.00;4991739;28;20541;-82
2023/08/01 10:09:29;;;;;;;3.73;2.53;;;;;;;21.15;nan;98413.66;4990044;28;20520;-80
2023/08/01 10:11:57;;;;;;;2.23;1.57;;;;;;;21.17;nan;98403.59;4993689;28;20706;-80
2023/08/01 10:14:25;;;;;;;4.10;1.93;;;;;;;21.17;nan;98414.28;4988836;28;20456;-81
2023/08/01 10:16:51;;;;;;;3.20;2.30;;;;;;;21.23;nan;98413.53;4989601;28;20476;-80
2023/08/01 10:19:17;;;;;;;3.80;1.70;;;;;;;21.29;nan;98410.06;4991899;28;20478;-80
2023/08/01 10:21:44;;;;;;;3.63;2.43;;;;;;;21.36;nan;98410.94;4976479;28;20502;-80
2023/08/01 10:24:11;;;;;;;2.63;2.00;;;;;;;21.46;nan;98412.44;4996898;28;20542;-81
2023/08/01 10:26:37;;;;;;;3.43;2.20;;;;;;;21.46;nan;98415.13;4999109;28;20460;-81
2023/08/01 10:29:02;;;;;;;2.70;1.73;;;;;;;21.44;nan;98407.28;4994038;28;20461;-81
2023/08/01 10:31:28;;;;;;;3.77;1.50;;;;;;;21.46;nan;98413.25;4994012;28;20300;-81
2023/08/01 10:34:04;;;;;;;2.07;1.87;;;;;;;21.53;nan;98414.13;4995423;28;20298;-80
2023/08/01 10:36:31;;;;;;;3.40;2.13;;;;;;;21.61;nan;98410.50;4993105;28;20438;-82
2023/08/01 10:38:59;;;;;;;2.10;1.90;;;;;;;21.66;nan;98413.41;4998155;28;20484;-82
2023/08/01 10:41:33;;;;;;;2.90;1.67;;;;;;;21.73;nan;98406.22;4998092;28;20465;-83
2023/08/01 10:44:05;;;;;;;2.20;1.77;;;;;;;21.97;nan;98398.72;5002300;28;20479;-81
2023/08/01 10:46:50;;;;;;;2.57;1.60;;;;;;;22.44;nan;98388.97;5005646;28;20497;-84
2023/08/01 10:49:17;;;;;;;1.97;1.60;;;;;;;23.06;nan;98400.34;5011260;28;20450;-81
2023/08/01 10:51:43;;;;;;;4.13;1.77;;;;;;;23.34;nan;98389.41;5010049;28;20991;-80
2023/08/01 10:54:22;;;;;;;2.10;1.83;;;;;;;23.45;nan;98407.50;4997821;28;20454;-82
2023/08/01 10:56:50;;;;;;;3.67;1.90;;;;;;;23.46;nan;98398.41;4997092;28;20421;-82
2023/08/01 10:59:16;;;;;;;2.53;1.53;;;;;;;23.42;nan;98397.22;4991935;28;20520;-82
2023/08/01 11:01:49;;;;;;;2.13;1.63;;;;;;;23.37;nan;98387.13;4995444;28;20470;-80
2023/08/01 11:04:24;;;;;;;2.87;1.60;;;;;;;23.44;nan;98399.66;4994582;28;20455;-82
2023/08/01 11:06:57;;;;;;;1.67;1.48;;;;;;;23.52;nan;98415.50;4995439;28;20427;-81
2023/08/01 11:09:27;;;;;;;1.73;1.23;;;;;;;23.50;nan;98418.41;4996353;28;20216;-80
2023/08/01 11:11:55;;;;;;;2.27;1.30;;;;;;;23.51;nan;98413.88;4995974;28;20514;-80
2023/08/01 11:14:22;;;;;;;1.33;1.23;;;;;;;23.54;nan;98408.91;4997441;28;20615;-81
2023/08/01 11:16:48;;;;;;;2.90;1.50;;;;;;;23.52;nan;98424.41;4996258;28;20829;-81
2023/08/01 11:19:23;;;;;;;1.70;1.43;;;;;;;23.52;nan;98426.25;4996618;28;20529;-81
2023/08/01 11:21:49;;;;;;;2.90;1.43;;;;;;;23.59;nan;98421.69;4994522;28;21131;-82
2023/08/01 11:24:14;;;;;;;2.50;1.40;;;;;;;23.68;nan;98416.91;4997481;28;20696;-82
2023/08/01 11:26:42;;;;;;;2.33;1.50;;;;;;;23.86;nan;98409.06;5001506;28;20197;-84
2023/08/01 11:29:07;;;;;;;1.43;1.20;;;;;;;24.10;nan;98412.06;4995331;28;20208;-81
2023/08/01 11:31:33;;;;;;;2.43;1.70;;;;;;;24.32;nan;98415.22;4992853;28;20440;-83
2023/08/01 11:33:59;;;;;;;3.77;1.40;;;;;;;24.43;nan;98409.16;4994390;28;20243;-81
2023/08/01 11:36:28;;;;;;;2.40;1.30;;;;;;;24.46;nan;98409.59;4990766;28;20491;-81
2023/08/01 11:38:58;;;;;;;2.27;1.13;;;;;;;24.41;nan;98406.72;4992138;28;20283;-83
2023/08/01 11:41:26;;;;;;;2.00;1.00;;;;;;;24.36;nan;98398.50;4992209;28;20512;-82
2023/08/01 11:43:54;;;;;;;1.87;0.90;;;;;;;24.46;nan;98393.47;4992645;28;20504;-82
2023/08/01 11:46:20;;;;;;;1.40;0.90;;;;;;;24.67;nan;98395.00;4991151;28;20468;-82
2023/08/01 11:48:52;;;;;;;3.00;1.00;;;;;;;24.93;nan;98393.97;4988000;28;20458;-81
2023/08/01 11:51:18;;;;;;;1.23;0.80;;;;;;;24.88;nan;98390.28;4993429;28;20193;-81